Accueil
METAR-TAF:

METAR-TAF

Aéroports :

Benson, Angleterre

latitude: 51-37N, longitude: 001-05W, altitude: 63 m

Observation

Le bulletin a été fait il y a 44 minutes, à 21:50 UTC
Vent 4 kt de ouest
Température 8°C
Humidité 76%
Pression 1017 hPa
Visibilité 10 km ou plus
Quelques nuages à une hauteur de 3000 ft
Ciel couvert à une hauteur de 5000 ft

METAR: EGUB 272150Z 28004KT 9999 FEW030 OVC050 08/04 Q1017 BLU

Heure: 23:34 (22:34 UTC)

Prévision

Le bulletin a été fait il y a 3 heures et 7 minutes, à 19:27 UTC
Prévision valable du 27 à 21 UTC au 27 à 24 UTC
Vent 5 kt de ouest
Visibilité 10 km ou plus
Nuages épars à une hauteur de 3000 ft
Probabilité 30% :
Temporairement
du 27 à 23 UTC au 27 à 24 UTC
Visibilité: 7000 m
Nuages fragmentés à une hauteur de 1800 ft
averses de pluie

TAF: EGUB 271927Z 2721/2724 28005KT 9999 SCT030 PROB30 TEMPO 2723/2724 7000 SHRA BKN018

Observations et prévisions météorologiques de plus de 4000 aéroports (messages METAR et TAF).

Les stations disponibles sont représentées par des disques jaunes et rouges sur la carte.

Passer la souris dessus pour voir le nom de la station.

Cliquer dessus pour voir les observations et prévisions météorologiques.

Pour changer de carte: cliquez sur les boutons verts avec une croix noire pour zoomer, sur le bouton vert avec un tiret pour effectuer un zoom arrière, ou sur les flèches vertes pour les cartes adjacentes.


METAR-TAF: